Time;durP1;ratioP1;P1;durP2;ratioP2;P2;SDS_P1;SDS_P2;PMS_P1;PMS_P2;Temp;Humidity;BMP_temperature;BMP_pressure;BME280_temperature;BME280_humidity;BME280_pressure;Samples;Min_cycle;Max_cycle;Signal;HPM_P1;HPM_P2
2020/12/12 00:01:53;;;;;;;8.60;5.07;;;6.10;99.90;;;;;;5031919;28;20295;-73
2020/12/12 00:04:19;;;;;;;10.07;6.20;;;6.20;99.90;;;;;;5031436;28;20231;-74
2020/12/12 00:06:46;;;;;;;9.73;5.38;;;6.20;99.90;;;;;;5032361;28;20204;-74
2020/12/12 00:09:12;;;;;;;7.13;4.15;;;6.30;99.90;;;;;;5032541;28;20234;-74
2020/12/12 00:11:39;;;;;;;8.90;4.80;;;6.30;99.90;;;;;;5034978;28;20225;-77
2020/12/12 00:14:05;;;;;;;6.60;4.78;;;6.30;99.90;;;;;;5035935;28;20593;-77
2020/12/12 00:16:32;;;;;;;9.35;5.78;;;6.40;99.90;;;;;;5035631;28;20207;-76
2020/12/12 00:18:58;;;;;;;9.00;4.55;;;6.40;99.90;;;;;;5035787;28;20208;-75
2020/12/12 00:21:24;;;;;;;12.60;6.28;;;6.40;99.90;;;;;;5035693;28;20238;-75
2020/12/12 00:23:51;;;;;;;8.35;4.65;;;6.20;99.90;;;;;;5035249;28;20584;-75
2020/12/12 00:26:20;;;;;;;8.55;5.32;;;5.90;99.90;;;;;;5034999;28;20299;-76
2020/12/12 00:28:48;;;;;;;12.45;6.03;;;6.00;99.90;;;;;;5035760;28;20544;-77
2020/12/12 00:31:18;;;;;;;8.30;4.60;;;5.90;99.90;;;;;;5035439;28;20227;-75
2020/12/12 00:33:45;;;;;;;7.75;4.20;;;6.00;99.90;;;;;;5035809;28;20250;-75
2020/12/12 00:36:11;;;;;;;8.82;5.07;;;6.10;99.90;;;;;;5035157;28;20200;-75
2020/12/12 00:38:37;;;;;;;7.05;4.55;;;6.20;99.90;;;;;;5035771;28;20204;-76
2020/12/12 00:41:05;;;;;;;8.48;4.68;;;6.20;99.90;;;;;;5035512;28;20295;-77
2020/12/12 00:43:31;;;;;;;7.32;5.10;;;6.30;99.90;;;;;;5035015;28;20227;-75
2020/12/12 00:45:59;;;;;;;8.77;4.90;;;6.30;99.90;;;;;;5034999;28;20394;-76
2020/12/12 00:48:25;;;;;;;9.95;5.53;;;6.30;99.90;;;;;;5034902;28;20226;-76
2020/12/12 00:50:52;;;;;;;11.85;4.88;;;6.30;99.90;;;;;;5034764;28;20221;-72
2020/12/12 00:53:18;;;;;;;10.75;5.70;;;6.20;99.90;;;;;;5035152;28;20207;-71
2020/12/12 00:55:44;;;;;;;9.10;4.93;;;6.20;99.90;;;;;;5035397;28;20210;-72
2020/12/12 00:58:11;;;;;;;13.60;5.40;;;6.10;99.90;;;;;;5035224;28;20200;-74
2020/12/12 01:00:37;;;;;;;11.10;5.60;;;6.00;99.90;;;;;;5035112;28;20554;-73
2020/12/12 01:03:04;;;;;;;12.13;5.68;;;5.90;99.90;;;;;;5034867;28;20220;-73
2020/12/12 01:05:32;;;;;;;12.10;5.85;;;5.90;99.90;;;;;;5035251;28;20200;-76
2020/12/12 01:07:58;;;;;;;9.00;6.07;;;5.80;99.90;;;;;;5034920;28;20200;-71
2020/12/12 01:10:25;;;;;;;11.15;6.53;;;6.00;99.90;;;;;;5035452;28;20196;-73
2020/12/12 01:12:51;;;;;;;14.63;6.82;;;6.10;99.90;;;;;;5034706;28;20577;-71
2020/12/12 01:15:18;;;;;;;10.77;5.55;;;6.20;99.90;;;;;;5034734;28;20642;-72
2020/12/12 01:17:44;;;;;;;10.93;6.50;;;6.00;99.90;;;;;;5034630;28;20200;-72
2020/12/12 01:20:12;;;;;;;9.48;5.80;;;6.00;99.90;;;;;;5035235;28;20200;-74
2020/12/12 01:22:39;;;;;;;8.30;5.00;;;6.00;99.90;;;;;;5034590;28;20251;-74
2020/12/12 01:25:05;;;;;;;11.50;6.43;;;6.10;99.90;;;;;;5034545;28;20204;-72
2020/12/12 01:27:32;;;;;;;11.65;6.57;;;6.10;99.90;;;;;;5034646;28;20192;-72
2020/12/12 01:29:58;;;;;;;9.57;6.15;;;6.20;99.90;;;;;;5034646;28;20196;-73
2020/12/12 01:32:24;;;;;;;12.18;5.68;;;6.10;99.90;;;;;;5034257;28;20224;-72
2020/12/12 01:34:51;;;;;;;11.10;5.75;;;6.20;99.90;;;;;;5034642;28;20197;-73
2020/12/12 01:37:18;;;;;;;11.00;5.78;;;6.00;99.90;;;;;;5034640;28;20284;-74
2020/12/12 01:39:44;;;;;;;11.30;6.30;;;6.00;99.90;;;;;;5034572;28;20199;-73
2020/12/12 01:42:10;;;;;;;8.90;5.30;;;5.80;99.90;;;;;;5034440;28;20211;-73
2020/12/12 01:44:37;;;;;;;13.52;6.60;;;5.80;99.90;;;;;;5034367;28;20223;-73
2020/12/12 01:47:05;;;;;;;12.10;6.85;;;5.90;99.90;;;;;;5034267;28;20594;-74
2020/12/12 01:49:31;;;;;;;10.07;5.80;;;5.80;99.90;;;;;;5036921;28;20205;-77
2020/12/12 01:51:57;;;;;;;11.02;6.68;;;5.80;99.90;;;;;;5037336;28;20200;-77
2020/12/12 01:54:25;;;;;;;10.32;6.10;;;6.00;99.90;;;;;;5035942;28;20200;-77
2020/12/12 01:56:53;;;;;;;11.95;6.53;;;5.90;99.90;;;;;;5035266;28;20204;-77
2020/12/12 01:59:20;;;;;;;11.70;6.57;;;6.00;99.90;;;;;;5035417;28;20204;-73
2020/12/12 02:01:47;;;;;;;14.63;6.60;;;6.10;99.90;;;;;;5035687;28;20206;-73
2020/12/12 02:04:18;;;;;;;18.15;6.22;;;6.20;99.90;;;;;;5035069;28;20228;-74
2020/12/12 02:06:45;;;;;;;11.15;5.40;;;6.20;99.90;;;;;;5035463;28;20241;-75
2020/12/12 02:09:14;;;;;;;15.55;6.90;;;6.00;99.90;;;;;;5035504;28;20554;-76
2020/12/12 02:11:41;;;;;;;12.45;7.03;;;5.80;99.90;;;;;;5035603;28;20200;-75
2020/12/12 02:14:09;;;;;;;9.20;5.40;;;5.80;99.90;;;;;;5036761;28;20230;-74
2020/12/12 02:16:52;;;;;;;10.88;5.65;;;5.80;99.90;;;;;;5035253;28;20250;-73
2020/12/12 02:19:18;;;;;;;10.85;5.75;;;5.80;99.90;;;;;;5035037;28;20223;-74
2020/12/12 02:21:50;;;;;;;10.40;5.15;;;5.80;99.90;;;;;;5034860;28;20294;-74
2020/12/12 02:24:16;;;;;;;9.93;5.80;;;5.80;99.90;;;;;;5034953;28;20212;-74
2020/12/12 02:26:43;;;;;;;12.90;6.68;;;5.90;99.90;;;;;;5035322;28;20210;-74
2020/12/12 02:29:11;;;;;;;11.23;6.55;;;6.00;99.90;;;;;;5035438;28;20300;-73
2020/12/12 02:31:38;;;;;;;9.10;5.85;;;6.10;99.90;;;;;;5034836;28;20681;-73
2020/12/12 02:34:05;;;;;;;12.35;7.03;;;6.20;99.90;;;;;;5034158;28;20558;-73
2020/12/12 02:36:35;;;;;;;9.77;5.07;;;6.00;99.90;;;;;;5034971;28;20557;-72
2020/12/12 02:39:05;;;;;;;10.07;5.50;;;5.90;99.90;;;;;;5034680;28;20208;-73
2020/12/12 02:41:31;;;;;;;13.25;6.95;;;5.90;99.90;;;;;;5035193;28;20200;-73
2020/12/12 02:43:57;;;;;;;10.82;5.88;;;5.60;99.90;;;;;;5034521;28;20236;-73
2020/12/12 02:46:24;;;;;;;8.23;5.15;;;5.40;99.90;;;;;;5034597;28;20540;-73
2020/12/12 02:48:50;;;;;;;11.50;6.50;;;5.50;99.90;;;;;;5034874;28;20199;-73
2020/12/12 02:51:17;;;;;;;16.58;5.80;;;5.60;99.90;;;;;;5034869;28;20210;-73
2020/12/12 02:53:44;;;;;;;13.38;5.82;;;5.70;99.90;;;;;;5034102;28;20306;-73
2020/12/12 02:56:13;;;;;;;9.93;5.40;;;5.90;99.90;;;;;;5034429;28;20574;-72
2020/12/12 02:58:40;;;;;;;12.70;6.05;;;5.90;99.90;;;;;;5034596;28;20552;-73
2020/12/12 03:01:07;;;;;;;7.90;5.07;;;6.00;99.90;;;;;;5034609;28;20300;-72
2020/12/12 03:03:33;;;;;;;9.15;5.78;;;6.10;99.90;;;;;;5034681;28;20250;-73
2020/12/12 03:06:00;;;;;;;8.88;6.05;;;6.00;99.90;;;;;;5033881;28;20287;-73
2020/12/12 03:08:26;;;;;;;8.88;5.32;;;6.00;99.90;;;;;;5034681;28;20207;-73
2020/12/12 03:10:52;;;;;;;15.70;6.65;;;6.10;99.90;;;;;;5034271;28;20211;-73
2020/12/12 03:13:20;;;;;;;10.45;5.82;;;6.20;99.90;;;;;;5033922;28;20216;-73
2020/12/12 03:15:46;;;;;;;10.40;5.35;;;6.20;99.90;;;;;;5034388;28;20618;-73
2020/12/12 03:18:13;;;;;;;11.55;5.82;;;6.30;99.90;;;;;;5034098;28;20300;-73
2020/12/12 03:20:39;;;;;;;13.63;6.00;;;6.20;99.90;;;;;;5034540;28;20204;-73
2020/12/12 03:23:05;;;;;;;13.77;6.63;;;6.20;99.90;;;;;;5034063;28;20234;-73
2020/12/12 03:25:31;;;;;;;9.45;5.93;;;6.20;99.90;;;;;;5033977;28;20204;-72
2020/12/12 03:27:58;;;;;;;12.05;5.10;;;6.20;99.90;;;;;;5034174;28;20554;-73
2020/12/12 03:30:25;;;;;;;14.50;5.03;;;6.20;99.90;;;;;;5033884;28;20204;-73
2020/12/12 03:32:51;;;;;;;11.82;5.38;;;6.30;99.90;;;;;;5033826;28;20240;-73
2020/12/12 03:35:17;;;;;;;12.13;6.38;;;6.20;99.90;;;;;;5034168;28;20696;-73
2020/12/12 03:37:44;;;;;;;9.50;5.63;;;6.20;99.90;;;;;;5033932;28;20204;-73
2020/12/12 03:40:10;;;;;;;11.68;6.55;;;6.20;99.90;;;;;;5033790;28;20303;-73
2020/12/12 03:42:36;;;;;;;9.63;5.50;;;6.20;99.90;;;;;;5033372;28;20705;-73
2020/12/12 03:45:03;;;;;;;9.45;5.70;;;6.10;99.90;;;;;;5033610;28;20235;-72
2020/12/12 03:47:30;;;;;;;10.10;5.97;;;6.20;99.90;;;;;;5033857;28;20200;-73
2020/12/12 03:49:57;;;;;;;12.15;5.75;;;6.30;99.90;;;;;;5033986;28;20200;-73
2020/12/12 03:52:23;;;;;;;12.43;5.50;;;6.30;99.90;;;;;;5034125;28;20231;-73
2020/12/12 03:54:49;;;;;;;9.90;6.25;;;6.30;99.90;;;;;;5033439;28;20207;-73
2020/12/12 03:57:16;;;;;;;8.70;5.13;;;6.20;99.90;;;;;;5033755;28;20215;-73
2020/12/12 03:59:42;;;;;;;9.68;5.85;;;6.10;99.90;;;;;;5033761;28;20600;-73
2020/12/12 04:02:08;;;;;;;11.77;5.28;;;5.90;99.90;;;;;;5033927;28;20302;-72
2020/12/12 04:04:35;;;;;;;12.43;6.38;;;5.90;99.90;;;;;;5034055;28;20230;-73
2020/12/12 04:07:02;;;;;;;9.05;5.68;;;5.90;99.90;;;;;;5033625;28;20205;-73
2020/12/12 04:09:28;;;;;;;8.65;5.55;;;6.10;99.90;;;;;;5033297;28;20204;-73
2020/12/12 04:11:54;;;;;;;7.35;5.15;;;6.10;99.90;;;;;;5033372;28;20218;-73
2020/12/12 04:14:21;;;;;;;10.27;5.15;;;6.20;99.90;;;;;;5033538;28;20201;-73
2020/12/12 04:16:49;;;;;;;11.18;6.05;;;6.20;99.90;;;;;;5033608;28;20534;-72
2020/12/12 04:19:15;;;;;;;14.25;7.28;;;6.20;99.90;;;;;;5034143;28;20208;-73
2020/12/12 04:21:43;;;;;;;11.32;5.53;;;6.20;99.90;;;;;;5033503;28;20200;-73
2020/12/12 04:24:09;;;;;;;9.30;4.85;;;6.20;99.90;;;;;;5033386;28;20578;-73
2020/12/12 04:26:35;;;;;;;11.85;5.82;;;6.20;99.90;;;;;;5033429;28;20222;-72
2020/12/12 04:29:02;;;;;;;10.63;5.18;;;6.20;99.90;;;;;;5033444;28;20200;-73
2020/12/12 04:31:28;;;;;;;8.52;4.85;;;6.20;99.90;;;;;;5033180;28;20208;-73
2020/12/12 04:33:54;;;;;;;7.03;4.63;;;6.10;99.90;;;;;;5033638;28;20226;-73
2020/12/12 04:36:21;;;;;;;10.50;4.90;;;6.10;99.90;;;;;;5033120;28;20204;-72
2020/12/12 04:38:49;;;;;;;7.47;4.80;;;6.10;99.90;;;;;;5033399;28;20200;-73
2020/12/12 04:41:16;;;;;;;10.50;5.50;;;6.20;99.90;;;;;;5033158;28;20222;-73
2020/12/12 04:43:43;;;;;;;7.82;4.55;;;6.30;99.90;;;;;;5033342;28;20228;-72
2020/12/12 04:46:11;;;;;;;8.18;4.63;;;6.20;99.90;;;;;;5032788;28;20205;-72
2020/12/12 04:48:38;;;;;;;8.88;5.03;;;6.30;99.90;;;;;;5033637;28;20204;-72
2020/12/12 04:51:05;;;;;;;6.88;4.82;;;6.40;99.90;;;;;;5033242;28;20306;-72
2020/12/12 04:53:32;;;;;;;8.95;5.47;;;6.40;99.90;;;;;;5033092;28;20712;-73
2020/12/12 04:56:03;;;;;;;9.02;5.72;;;6.40;99.90;;;;;;5033442;28;20302;-72
2020/12/12 04:58:29;;;;;;;8.77;4.90;;;6.30;99.90;;;;;;5036371;28;20210;-73
2020/12/12 05:00:57;;;;;;;9.93;5.15;;;6.40;99.90;;;;;;5036924;28;20212;-73
2020/12/12 05:03:25;;;;;;;10.95;5.55;;;6.40;99.90;;;;;;5036817;28;20254;-73
2020/12/12 05:05:52;;;;;;;8.07;4.65;;;6.30;99.90;;;;;;5036563;28;20203;-72
2020/12/12 05:08:18;;;;;;;8.90;6.07;;;6.30;99.90;;;;;;5036896;28;20231;-72
2020/12/12 05:10:47;;;;;;;7.45;4.85;;;6.10;99.90;;;;;;5036660;28;20209;-72
2020/12/12 05:13:16;;;;;;;9.27;5.20;;;5.90;99.90;;;;;;5036144;28;20228;-72
2020/12/12 05:15:42;;;;;;;8.80;5.25;;;5.90;99.90;;;;;;5036252;28;20670;-72
2020/12/12 05:18:09;;;;;;;9.15;5.05;;;5.80;99.90;;;;;;5036112;28;20206;-73
2020/12/12 05:20:36;;;;;;;6.20;4.10;;;5.60;99.90;;;;;;5036253;28;20208;-73
2020/12/12 05:23:08;;;;;;;10.15;5.30;;;5.50;99.90;;;;;;5036274;28;20314;-73
2020/12/12 05:25:35;;;;;;;9.20;5.30;;;5.60;99.90;;;;;;5036620;28;20204;-72
2020/12/12 05:28:03;;;;;;;8.50;4.70;;;5.60;99.90;;;;;;5036858;28;20206;-73
2020/12/12 05:30:30;;;;;;;9.88;4.50;;;5.50;99.90;;;;;;5036214;28;20215;-73
2020/12/12 05:32:57;;;;;;;8.38;5.18;;;5.30;99.90;;;;;;5036647;28;20259;-73
2020/12/12 05:35:24;;;;;;;7.78;5.35;;;5.20;99.90;;;;;;5036115;28;20722;-72
2020/12/12 05:37:51;;;;;;;9.88;5.13;;;5.20;99.90;;;;;;5036783;28;20566;-73
2020/12/12 05:40:17;;;;;;;6.53;4.25;;;5.30;99.90;;;;;;5036293;28;20615;-73
2020/12/12 05:42:46;;;;;;;7.10;4.88;;;5.20;99.90;;;;;;5035980;28;20585;-73
2020/12/12 05:45:12;;;;;;;8.88;5.18;;;5.20;99.90;;;;;;5035645;28;20239;-72
2020/12/12 05:47:39;;;;;;;8.68;4.97;;;5.20;99.90;;;;;;5036157;28;20553;-72
2020/12/12 05:50:06;;;;;;;10.20;5.13;;;5.30;99.90;;;;;;5036075;28;20208;-73
2020/12/12 05:52:32;;;;;;;5.97;4.13;;;5.30;99.90;;;;;;5035905;28;20227;-72
2020/12/12 05:54:59;;;;;;;14.23;6.00;;;5.40;99.90;;;;;;5036021;28;20202;-72
2020/12/12 05:57:27;;;;;;;10.63;5.53;;;5.40;99.90;;;;;;5036099;28;20215;-73
2020/12/12 05:59:54;;;;;;;10.02;4.57;;;5.50;99.90;;;;;;5035514;28;20206;-73
2020/12/12 06:02:24;;;;;;;10.73;5.30;;;5.60;99.90;;;;;;5035462;28;20228;-72
2020/12/12 06:04:52;;;;;;;12.40;5.97;;;5.50;99.90;;;;;;5035680;28;20222;-72
2020/12/12 06:07:27;;;;;;;9.20;5.35;;;5.50;99.90;;;;;;5035268;28;20242;-73
2020/12/12 06:09:58;;;;;;;11.32;5.55;;;5.60;99.90;;;;;;5035113;28;20204;-72
2020/12/12 06:12:24;;;;;;;7.55;5.20;;;5.50;99.90;;;;;;5035268;28;20231;-72
2020/12/12 06:14:54;;;;;;;11.35;4.88;;;5.70;99.90;;;;;;5035097;28;20200;-72
2020/12/12 06:17:30;;;;;;;10.60;6.00;;;5.80;99.90;;;;;;5035365;28;20714;-72
2020/12/12 06:19:59;;;;;;;8.95;5.30;;;5.90;99.90;;;;;;5035546;28;20208;-73
2020/12/12 06:22:26;;;;;;;7.65;5.15;;;6.00;99.90;;;;;;5035430;28;20235;-73
2020/12/12 06:24:59;;;;;;;6.38;3.65;;;6.20;99.90;;;;;;5034546;28;20220;-72
2020/12/12 06:27:32;;;;;;;9.85;4.80;;;6.30;99.90;;;;;;5035230;28;20212;-72
2020/12/12 06:30:02;;;;;;;7.57;4.65;;;6.30;99.90;;;;;;5035131;28;20664;-73
2020/12/12 06:32:28;;;;;;;6.55;4.57;;;6.40;99.90;;;;;;5035030;28;20322;-72
2020/12/12 06:34:54;;;;;;;11.20;5.88;;;6.20;99.90;;;;;;5034420;28;20206;-72
2020/12/12 06:37:29;;;;;;;9.00;4.88;;;6.10;99.90;;;;;;5035090;28;20207;-72
2020/12/12 06:39:56;;;;;;;9.88;5.40;;;6.00;99.90;;;;;;5035082;28;20212;-72
2020/12/12 06:42:38;;;;;;;9.05;5.15;;;5.90;99.90;;;;;;5034788;28;20220;-73
2020/12/12 06:45:29;;;;;;;7.70;4.55;;;5.70;99.90;;;;;;5034842;28;20223;-72
2020/12/12 06:47:56;;;;;;;10.10;4.90;;;5.50;99.90;;;;;;5034614;28;20667;-72
2020/12/12 06:50:24;;;;;;;9.32;4.75;;;5.50;99.90;;;;;;5035008;28;20232;-72
2020/12/12 06:52:52;;;;;;;8.18;4.45;;;5.40;99.90;;;;;;5034848;28;20721;-73
2020/12/12 06:55:20;;;;;;;16.13;5.30;;;5.40;99.90;;;;;;5035811;28;20287;-72
2020/12/12 06:57:48;;;;;;;8.82;4.82;;;5.40;99.90;;;;;;5035470;28;20204;-73
2020/12/12 07:00:27;;;;;;;6.30;3.53;;;5.40;99.90;;;;;;5034638;28;20200;-73
2020/12/12 07:02:54;;;;;;;6.43;3.60;;;5.50;99.90;;;;;;5034879;28;20223;-73
2020/12/12 07:05:22;;;;;;;7.47;4.03;;;5.50;99.90;;;;;;5034552;28;20312;-73
2020/12/12 07:07:49;;;;;;;6.45;3.80;;;5.70;99.90;;;;;;5034901;28;20563;-73
2020/12/12 07:10:16;;;;;;;7.68;4.28;;;5.90;99.90;;;;;;5034949;28;20569;-73
2020/12/12 07:12:43;;;;;;;6.57;3.90;;;6.00;99.90;;;;;;5034406;28;20224;-73
2020/12/12 07:15:09;;;;;;;9.02;4.53;;;6.10;99.90;;;;;;5033849;28;20291;-73
2020/12/12 07:17:36;;;;;;;8.80;5.32;;;6.20;99.90;;;;;;5034570;28;20203;-73
2020/12/12 07:20:03;;;;;;;8.52;4.63;;;6.20;99.90;;;;;;5033985;28;20204;-73
2020/12/12 07:22:29;;;;;;;9.95;4.40;;;6.20;99.90;;;;;;5034160;28;20255;-73
2020/12/12 07:24:57;;;;;;;5.68;3.60;;;6.20;99.90;;;;;;5033897;28;20224;-72
2020/12/12 07:27:26;;;;;;;4.20;3.40;;;6.40;99.90;;;;;;5034099;28;20215;-73
2020/12/12 07:29:52;;;;;;;5.90;3.65;;;6.40;99.90;;;;;;5034179;28;20603;-73
2020/12/12 07:32:19;;;;;;;6.43;3.58;;;6.40;99.90;;;;;;5034072;28;20267;-73
2020/12/12 07:34:45;;;;;;;4.97;3.45;;;6.50;99.90;;;;;;5034267;28;20214;-73
2020/12/12 07:37:12;;;;;;;7.30;3.70;;;6.50;99.90;;;;;;5034385;28;20206;-73
2020/12/12 07:39:40;;;;;;;7.30;3.55;;;6.30;99.90;;;;;;5033920;28;20299;-73
2020/12/12 07:42:08;;;;;;;4.78;2.78;;;6.30;99.90;;;;;;5033943;28;20230;-73
2020/12/12 07:44:36;;;;;;;9.38;4.00;;;6.20;99.90;;;;;;5034121;28;20250;-73
2020/12/12 07:47:04;;;;;;;7.60;3.92;;;6.10;99.90;;;;;;5034099;28;20211;-73
2020/12/12 07:49:31;;;;;;;3.50;2.72;;;6.10;99.90;;;;;;5034220;28;20298;-73
2020/12/12 07:51:59;;;;;;;7.85;3.35;;;6.10;99.90;;;;;;5034100;28;20204;-73
2020/12/12 07:54:32;;;;;;;4.15;2.95;;;6.10;99.90;;;;;;5033584;28;20218;-73
2020/12/12 07:56:59;;;;;;;7.63;4.18;;;6.10;99.90;;;;;;5033827;28;20298;-73
2020/12/12 07:59:25;;;;;;;6.28;3.78;;;6.00;99.90;;;;;;5033975;28;20208;-73
2020/12/12 08:01:52;;;;;;;5.63;3.28;;;6.00;99.90;;;;;;5033430;28;20212;-73
2020/12/12 08:04:23;;;;;;;8.32;3.80;;;6.00;99.90;;;;;;5033495;28;20230;-73
2020/12/12 08:06:49;;;;;;;9.65;4.38;;;6.00;99.90;;;;;;5033385;28;20210;-72
2020/12/12 08:09:20;;;;;;;7.45;4.38;;;6.10;99.90;;;;;;5033456;28;20551;-73
2020/12/12 08:11:55;;;;;;;5.95;3.65;;;6.10;99.90;;;;;;5033954;28;20556;-72
2020/12/12 08:14:22;;;;;;;5.85;3.60;;;6.20;99.90;;;;;;5034164;28;20255;-73
2020/12/12 08:16:53;;;;;;;11.65;4.40;;;6.20;99.90;;;;;;5033716;28;20204;-72
2020/12/12 08:19:21;;;;;;;6.40;3.33;;;6.20;99.90;;;;;;5033643;28;20212;-73
2020/12/12 08:21:50;;;;;;;5.25;2.83;;;6.20;99.90;;;;;;5033604;28;20311;-73
2020/12/12 08:24:17;;;;;;;5.30;2.95;;;6.30;99.90;;;;;;5033493;28;20226;-73
2020/12/12 08:26:43;;;;;;;6.30;3.50;;;6.30;99.90;;;;;;5033653;28;20210;-72
2020/12/12 08:29:10;;;;;;;6.55;3.53;;;6.30;99.90;;;;;;5033836;28;20204;-72
2020/12/12 08:31:38;;;;;;;8.30;3.10;;;6.40;99.90;;;;;;5034910;28;20211;-73
2020/12/12 08:34:04;;;;;;;6.18;3.28;;;6.50;99.90;;;;;;5037425;28;20224;-73
2020/12/12 08:36:32;;;;;;;5.30;3.45;;;6.50;99.90;;;;;;5036968;28;20607;-73
2020/12/12 08:39:01;;;;;;;8.10;3.33;;;6.70;99.90;;;;;;5037392;28;20204;-73
2020/12/12 08:41:29;;;;;;;4.55;3.10;;;6.70;99.90;;;;;;5037001;28;20210;-73
2020/12/12 08:43:55;;;;;;;5.15;3.17;;;6.90;99.90;;;;;;5036732;28;20231;-73
2020/12/12 08:46:22;;;;;;;3.92;2.85;;;6.90;99.90;;;;;;5036654;28;20673;-73
2020/12/12 08:48:48;;;;;;;4.95;2.55;;;7.00;99.90;;;;;;5037000;28;20650;-73
2020/12/12 08:51:22;;;;;;;5.38;2.80;;;6.90;99.90;;;;;;5037153;28;20745;-73
2020/12/12 08:53:50;;;;;;;4.03;2.35;;;6.90;99.90;;;;;;5037369;28;20224;-73
2020/12/12 08:56:24;;;;;;;4.70;3.08;;;7.00;99.90;;;;;;5036637;28;20578;-73
2020/12/12 08:58:54;;;;;;;3.83;2.28;;;7.00;99.90;;;;;;5037011;28;20238;-73
2020/12/12 09:01:35;;;;;;;3.55;2.40;;;7.10;99.90;;;;;;5036968;28;20566;-73
2020/12/12 09:04:14;;;;;;;4.75;2.60;;;7.20;99.90;;;;;;5037217;28;20311;-74
2020/12/12 09:06:54;;;;;;;3.35;2.30;;;7.20;99.90;;;;;;5037051;28;20214;-73
2020/12/12 09:09:23;;;;;;;4.30;2.60;;;7.30;99.90;;;;;;5036725;28;20203;-73
2020/12/12 09:11:56;;;;;;;4.40;2.45;;;7.30;99.90;;;;;;5036679;28;20266;-73
2020/12/12 09:14:23;;;;;;;4.15;2.78;;;7.40;99.90;;;;;;5036780;28;20394;-73
2020/12/12 09:16:51;;;;;;;2.70;2.15;;;7.40;99.90;;;;;;5036592;28;20214;-73
2020/12/12 09:19:18;;;;;;;6.13;2.58;;;7.40;99.90;;;;;;5036366;28;20230;-73
2020/12/12 09:21:44;;;;;;;4.05;2.70;;;7.40;99.90;;;;;;5036157;28;20200;-73
2020/12/12 09:24:11;;;;;;;3.22;2.15;;;7.40;99.90;;;;;;5036493;28;20232;-73
2020/12/12 09:26:38;;;;;;;2.63;2.10;;;7.40;99.90;;;;;;5036568;28;20203;-73
2020/12/12 09:29:04;;;;;;;3.47;2.28;;;7.50;99.90;;;;;;5036674;28;20693;-73
2020/12/12 09:31:31;;;;;;;3.50;2.33;;;7.60;99.90;;;;;;5036369;28;20227;-73
2020/12/12 09:33:57;;;;;;;3.67;2.20;;;7.70;99.90;;;;;;5036212;28;20228;-73
2020/12/12 09:36:24;;;;;;;3.65;2.35;;;7.70;99.90;;;;;;5036263;28;20208;-73
2020/12/12 09:38:51;;;;;;;2.78;1.85;;;7.70;99.90;;;;;;5036394;28;20200;-73
2020/12/12 09:41:17;;;;;;;5.57;2.92;;;7.80;99.90;;;;;;5036160;28;20665;-73
2020/12/12 09:43:44;;;;;;;4.20;2.08;;;7.80;99.90;;;;;;5035211;28;20228;-73
2020/12/12 09:46:11;;;;;;;3.10;2.30;;;7.90;99.90;;;;;;5035901;28;20204;-73
2020/12/12 09:48:39;;;;;;;3.45;2.20;;;7.80;99.90;;;;;;5035873;28;20207;-73
2020/12/12 09:51:06;;;;;;;2.83;2.10;;;7.90;99.90;;;;;;5035700;28;20606;-73
2020/12/12 09:53:33;;;;;;;1.67;1.52;;;7.80;99.90;;;;;;5036031;28;20220;-73
2020/12/12 09:55:59;;;;;;;2.75;2.28;;;7.80;99.90;;;;;;5035990;28;20206;-73
2020/12/12 09:58:26;;;;;;;3.67;2.60;;;7.80;99.90;;;;;;5036284;28;20211;-73
2020/12/12 10:00:53;;;;;;;4.00;2.22;;;7.90;99.90;;;;;;5036236;28;20207;-73
2020/12/12 10:03:19;;;;;;;2.00;1.83;;;7.90;99.90;;;;;;5035543;28;20605;-73
2020/12/12 10:05:46;;;;;;;3.53;2.28;;;8.00;99.90;;;;;;5035818;28;20231;-73
2020/12/12 10:08:13;;;;;;;2.13;1.90;;;8.00;99.90;;;;;;5035794;28;20200;-73
2020/12/12 10:10:39;;;;;;;2.78;2.00;;;8.10;99.90;;;;;;5035867;28;20650;-73
2020/12/12 10:13:06;;;;;;;2.50;1.95;;;8.10;99.90;;;;;;5035457;28;20236;-73
2020/12/12 10:15:32;;;;;;;5.07;2.30;;;8.20;99.90;;;;;;5035344;28;20200;-73
2020/12/12 10:17:59;;;;;;;4.65;2.13;;;8.20;99.90;;;;;;5035188;28;20647;-73
2020/12/12 10:20:26;;;;;;;2.97;1.70;;;8.30;99.90;;;;;;5035759;28;20558;-73
2020/12/12 10:22:52;;;;;;;3.72;2.45;;;8.40;99.90;;;;;;5035743;28;20224;-73
2020/12/12 10:25:19;;;;;;;3.30;2.10;;;8.40;99.90;;;;;;5035126;28;20228;-73
2020/12/12 10:27:45;;;;;;;3.50;1.55;;;8.40;99.90;;;;;;5035482;28;20219;-73
2020/12/12 10:30:13;;;;;;;2.95;2.20;;;8.50;99.90;;;;;;5034755;28;20666;-73
2020/12/12 10:32:40;;;;;;;2.60;2.00;;;8.60;99.90;;;;;;5035017;28;20228;-73
2020/12/12 10:35:09;;;;;;;2.90;2.00;;;8.60;99.90;;;;;;5034741;28;20204;-73
2020/12/12 10:37:36;;;;;;;2.78;1.70;;;8.50;99.90;;;;;;5035088;28;20207;-73
2020/12/12 10:40:10;;;;;;;2.30;1.88;;;8.50;99.90;;;;;;5035344;28;20532;-73
2020/12/12 10:42:36;;;;;;;2.33;2.13;;;8.50;99.90;;;;;;5035152;28;20697;-73
2020/12/12 10:45:04;;;;;;;2.17;1.75;;;8.60;99.90;;;;;;5034772;28;20220;-73
2020/12/12 10:47:30;;;;;;;2.55;1.58;;;8.60;99.90;;;;;;5035000;28;20615;-73
2020/12/12 10:49:56;;;;;;;2.13;1.75;;;8.80;99.90;;;;;;5034700;28;20208;-73
2020/12/12 10:52:23;;;;;;;2.97;2.13;;;8.80;99.90;;;;;;5035140;28;20562;-73
2020/12/12 10:54:51;;;;;;;3.38;2.70;;;8.70;99.90;;;;;;5034297;28;20593;-73
2020/12/12 10:57:17;;;;;;;2.83;2.15;;;8.80;99.90;;;;;;5035253;28;20207;-73
2020/12/12 10:59:43;;;;;;;3.45;2.60;;;8.90;99.90;;;;;;5034752;28;20245;-73
2020/12/12 11:02:12;;;;;;;3.22;2.08;;;8.90;99.90;;;;;;5034951;28;20623;-73
2020/12/12 11:04:38;;;;;;;1.67;1.40;;;8.90;99.90;;;;;;5034758;28;20231;-73
2020/12/12 11:07:05;;;;;;;2.20;1.70;;;8.80;99.90;;;;;;5034791;28;20608;-73
2020/12/12 11:09:33;;;;;;;2.28;1.50;;;8.80;99.90;;;;;;5035210;28;20299;-74
2020/12/12 11:12:00;;;;;;;1.83;1.40;;;8.90;99.90;;;;;;5035175;28;20211;-73
2020/12/12 11:14:29;;;;;;;1.60;1.50;;;9.00;99.90;;;;;;5035745;28;20298;-73
2020/12/12 11:16:56;;;;;;;2.83;2.00;;;9.00;99.90;;;;;;5035190;28;20208;-73
2020/12/12 11:19:23;;;;;;;3.50;1.80;;;9.00;99.90;;;;;;5034382;28;20206;-73
2020/12/12 11:21:52;;;;;;;2.03;1.90;;;9.00;99.90;;;;;;5035478;28;20204;-73
2020/12/12 11:24:19;;;;;;;2.25;2.05;;;9.00;99.90;;;;;;5035270;28;20226;-73
2020/12/12 11:26:46;;;;;;;2.22;1.75;;;9.10;99.90;;;;;;5034371;28;20211;-73
2020/12/12 11:29:14;;;;;;;2.17;1.80;;;9.10;99.90;;;;;;5035254;28;20208;-73
2020/12/12 11:31:42;;;;;;;2.53;1.52;;;9.20;99.90;;;;;;5035237;28;20307;-73
2020/12/12 11:34:13;;;;;;;2.58;1.70;;;9.20;99.90;;;;;;5034501;28;20755;-74
2020/12/12 11:36:52;;;;;;;2.10;1.90;;;9.30;99.90;;;;;;5034335;28;20659;-73
2020/12/12 11:39:22;;;;;;;3.03;1.88;;;9.30;99.90;;;;;;5034911;28;20203;-73
2020/12/12 11:44:48;;;;;;;2.72;1.60;;;9.40;99.90;;;;;;5031062;28;20215;-73
2020/12/12 11:47:14;;;;;;;2.00;1.90;;;9.40;99.90;;;;;;5034840;28;20226;-73
2020/12/12 11:49:41;;;;;;;2.73;1.83;;;9.40;99.90;;;;;;5035128;28;20204;-75
2020/12/12 11:52:08;;;;;;;3.08;1.80;;;9.40;99.90;;;;;;5034307;28;20439;-77
2020/12/12 11:54:34;;;;;;;3.22;2.10;;;9.50;99.90;;;;;;5033333;28;20192;-76
2020/12/12 11:57:05;;;;;;;2.55;1.75;;;9.40;99.90;;;;;;5033530;28;20227;-77
2020/12/12 11:59:31;;;;;;;3.35;1.85;;;9.40;99.90;;;;;;5034117;28;20200;-77
2020/12/12 12:01:58;;;;;;;1.92;1.80;;;9.40;99.90;;;;;;5035045;28;20681;-78
2020/12/12 12:04:24;;;;;;;2.90;2.03;;;9.30;99.90;;;;;;5035327;28;20223;-79
2020/12/12 12:06:51;;;;;;;2.85;1.85;;;9.40;99.90;;;;;;5036907;28;20200;-78
2020/12/12 12:09:23;;;;;;;3.65;2.17;;;9.30;99.90;;;;;;5038926;28;20215;-78
2020/12/12 12:11:50;;;;;;;2.45;1.98;;;9.40;99.90;;;;;;5036285;28;20232;-77
2020/12/12 12:14:18;;;;;;;2.28;1.95;;;9.50;99.90;;;;;;5037505;28;20314;-77
2020/12/12 12:16:44;;;;;;;2.75;1.92;;;9.30;99.90;;;;;;5037876;28;20750;-77
2020/12/12 12:19:12;;;;;;;2.35;2.00;;;9.40;99.90;;;;;;5036866;28;20227;-77
2020/12/12 12:21:40;;;;;;;2.00;1.80;;;9.50;99.90;;;;;;5037381;28;20196;-84
2020/12/12 12:24:07;;;;;;;4.15;2.20;;;9.60;99.90;;;;;;5038615;28;20273;-79
2020/12/12 12:26:35;;;;;;;3.20;2.00;;;9.70;99.90;;;;;;5040064;28;20287;-80
2020/12/12 12:29:01;;;;;;;3.70;2.08;;;9.60;99.90;;;;;;5045413;28;20212;-77
2020/12/12 12:31:29;;;;;;;3.95;2.30;;;9.60;99.90;;;;;;5040977;28;20243;-78
2020/12/12 12:33:55;;;;;;;3.00;2.05;;;9.60;99.90;;;;;;5040230;28;20228;-73
2020/12/12 12:36:25;;;;;;;4.28;2.35;;;9.70;99.90;;;;;;5040392;28;20616;-79
2020/12/12 12:38:51;;;;;;;4.32;2.78;;;9.70;99.90;;;;;;5040893;28;20214;-74
2020/12/12 12:41:18;;;;;;;4.38;2.70;;;9.70;99.90;;;;;;5041755;28;20193;-75
2020/12/12 12:43:45;;;;;;;2.45;2.05;;;9.60;99.90;;;;;;5038672;28;20693;-78
2020/12/12 12:46:11;;;;;;;2.40;2.20;;;9.60;99.90;;;;;;5039367;28;20228;-77
2020/12/12 12:48:38;;;;;;;2.78;1.88;;;9.50;99.90;;;;;;5041112;28;20565;-78
2020/12/12 12:51:06;;;;;;;2.53;2.30;;;9.60;99.90;;;;;;5045212;28;20267;-80
2020/12/12 12:53:32;;;;;;;2.97;2.03;;;9.60;99.90;;;;;;5044421;28;20654;-81
2020/12/12 12:55:59;;;;;;;5.80;2.58;;;9.70;99.90;;;;;;5044252;28;20200;-76
2020/12/12 12:58:26;;;;;;;2.75;2.00;;;9.70;99.90;;;;;;5041731;28;20638;-75
2020/12/12 13:00:52;;;;;;;2.20;2.00;;;9.70;99.90;;;;;;5039656;28;20204;-75